M.t. King Everest — V7DB8 — position and weather

sailwx.info

Track history (hours):
 
Tides and Currents Weather Stations Pressure Air Temp Water Temp Dewpoint Dewpoint Depression Visibility Wind Speed Wind Dir Waves Ship Positions

M.t. King Everest

Last reported at 2016-Feb-03 09:23 UTC. Time now 2016-Feb-09 03:31 UTC.
Position N 37°51' E 025°51'.

Length 181 m; draft 7 m.

Type: Ship. MMSI: 538090267.

Date/timePositionNaut miles runAvg speedWind from/ knotsBaromVisibWave heightAir tempDewpointWater temp
2016-Feb-03 09:23N 37°51' E 025°51'1213.9
2016-Feb-03 08:32N 37°39' E 025°52'1414.1
2016-Feb-03 07:34N 37°25' E 025°53'1414.2
2016-Feb-03 06:33N 37°11' E 025°54'1713.8
2016-Feb-03 05:21N 36°59' E 026°09'1413.5
2016-Feb-03 04:21N 36°50' E 026°22'1213.5
2016-Feb-03 03:30N 36°43' E 026°33'1513.6
2016-Feb-03 02:22N 36°32' E 026°46'1213.3
2016-Feb-03 01:28N 36°23' E 026°56'29811.8
2016-Feb-02 00:15N 34°25' E 032°32'1311.0
2016-Feb-01 23:05N 34°20' E 032°46'611.0
2016-Feb-01 22:32N 34°18' E 032°53'1110.6
2016-Feb-01 21:33N 34°17' E 033°06'1311.4
2016-Feb-01 20:26N 34°21' E 033°21'1011.3
2016-Feb-01 19:33N 34°26' E 033°31'  
2016-Jan-30 05:32N 34°27' E 033°18'2 2.1
2016-Jan-30 04:33N 34°26' E 033°16'0 0.4
2016-Jan-30 03:33N 34°26' E 033°16'1 0.7
2016-Jan-30 02:26N 34°27' E 033°16'1 1.0
2016-Jan-30 01:33N 34°27' E 033°18'3 2.7
2016-Jan-30 00:33N 34°24' E 033°19'0 0.4
2016-Jan-29 23:26N 34°25' E 033°19'1 0.5
2016-Jan-29 22:17N 34°25' E 033°18'0 0.6
2016-Jan-29 21:32N 34°26' E 033°18'1 0.8
2016-Jan-29 20:13N 34°26' E 033°18'1 0.7
2016-Jan-29 19:26N 34°27' E 033°17'0 0.1
2016-Jan-29 18:31N 34°27' E 033°17'8 8.0
2016-Jan-29 17:33N 34°24' E 033°08'1413.7
2016-Jan-29 16:33N 34°25' E 032°52'32713.0
2016-Jan-28 15:23N 36°34' E 026°43'5710.7
2016-Jan-28 10:06N 37°13' E 025°53'713.7
2016-Jan-28 09:33N 37°19' E 025°47'1413.9
2016-Jan-28 08:33N 37°31' E 025°38'1413.6
2016-Jan-28 07:33N 37°42' E 025°27'1413.7
2016-Jan-28 06:33N 37°53' E 025°19'  
Track history (hours):
 
Tides and Currents Weather Stations Pressure Air Temp Water Temp Dewpoint Dewpoint Depression Visibility Wind Speed Wind Dir Waves Ship Positions

M.t. King Everest

Last reported at 2016-Feb-03 09:23 UTC. Time now 2016-Feb-09 03:31 UTC.
Position N 37°51' E 025°51'.

Length 181 m; draft 7 m.

Type: Ship. MMSI: 538090267.

Date/timePositionNaut miles runAvg speedWind from/ knotsBaromVisibWave heightAir tempDewpointWater temp
2016-Feb-03 09:23N 37°51' E 025°51'1213.9
2016-Feb-03 08:32N 37°39' E 025°52'1414.1
2016-Feb-03 07:34N 37°25' E 025°53'1414.2
2016-Feb-03 06:33N 37°11' E 025°54'1713.8
2016-Feb-03 05:21N 36°59' E 026°09'1413.5
2016-Feb-03 04:21N 36°50' E 026°22'1213.5
2016-Feb-03 03:30N 36°43' E 026°33'1513.6
2016-Feb-03 02:22N 36°32' E 026°46'1213.3
2016-Feb-03 01:28N 36°23' E 026°56'29811.8
2016-Feb-02 00:15N 34°25' E 032°32'1311.0
2016-Feb-01 23:05N 34°20' E 032°46'611.0
2016-Feb-01 22:32N 34°18' E 032°53'1110.6
2016-Feb-01 21:33N 34°17' E 033°06'1311.4
2016-Feb-01 20:26N 34°21' E 033°21'1011.3
2016-Feb-01 19:33N 34°26' E 033°31'  
2016-Jan-30 05:32N 34°27' E 033°18'2 2.1
2016-Jan-30 04:33N 34°26' E 033°16'0 0.4
2016-Jan-30 03:33N 34°26' E 033°16'1 0.7
2016-Jan-30 02:26N 34°27' E 033°16'1 1.0
2016-Jan-30 01:33N 34°27' E 033°18'3 2.7
2016-Jan-30 00:33N 34°24' E 033°19'0 0.4
2016-Jan-29 23:26N 34°25' E 033°19'1 0.5
2016-Jan-29 22:17N 34°25' E 033°18'0 0.6
2016-Jan-29 21:32N 34°26' E 033°18'1 0.8
2016-Jan-29 20:13N 34°26' E 033°18'1 0.7
2016-Jan-29 19:26N 34°27' E 033°17'0 0.1
2016-Jan-29 18:31N 34°27' E 033°17'8 8.0
2016-Jan-29 17:33N 34°24' E 033°08'1413.7
2016-Jan-29 16:33N 34°25' E 032°52'32713.0
2016-Jan-28 15:23N 36°34' E 026°43'5710.7
2016-Jan-28 10:06N 37°13' E 025°53'713.7
2016-Jan-28 09:33N 37°19' E 025°47'1413.9
2016-Jan-28 08:33N 37°31' E 025°38'1413.6
2016-Jan-28 07:33N 37°42' E 025°27'1413.7
2016-Jan-28 06:33N 37°53' E 025°19'  

Dump ship's entire track history